createdAt,value
2022-09-07T00:00:15.761Z,17.36
2022-09-07T00:01:47.429Z,17.36
2022-09-07T00:03:19.401Z,17.36
2022-09-07T00:04:51.525Z,17.35
2022-09-07T00:06:23.471Z,17.33
2022-09-07T00:07:55.693Z,17.31
2022-09-07T00:09:27.461Z,17.34
2022-09-07T00:11:00.779Z,17.38
2022-09-07T00:12:32.399Z,17.41
2022-09-07T00:14:04.051Z,17.46
2022-09-07T00:15:39.323Z,17.52
2022-09-07T00:17:10.983Z,17.57
2022-09-07T00:18:45.781Z,17.63
2022-09-07T00:20:18.045Z,17.68
2022-09-07T00:21:49.828Z,17.73
2022-09-07T00:23:21.728Z,17.73
2022-09-07T00:24:56.288Z,17.75
2022-09-07T00:26:32.100Z,17.75
2022-09-07T00:28:08.485Z,17.71
2022-09-07T00:30:31.937Z,17.70
2022-09-07T00:32:04.124Z,17.72
2022-09-07T00:33:35.929Z,17.75
2022-09-07T00:35:07.752Z,17.73
2022-09-07T00:36:39.333Z,17.73
2022-09-07T00:38:10.948Z,17.71
2022-09-07T00:39:42.995Z,17.70
2022-09-07T00:41:14.810Z,17.68
2022-09-07T00:42:46.335Z,17.67
2022-09-07T00:44:36.226Z,17.68
2022-09-07T00:46:10.497Z,17.69
2022-09-07T00:47:51.805Z,17.70
2022-09-07T00:49:23.641Z,17.68
2022-09-07T00:50:56.686Z,17.68
2022-09-07T00:52:28.341Z,17.69
2022-09-07T00:54:01.403Z,17.64
2022-09-07T00:55:33.225Z,17.63
2022-09-07T00:57:04.920Z,17.63
2022-09-07T00:58:36.577Z,17.61
2022-09-07T01:00:08.791Z,17.60
2022-09-07T01:01:40.687Z,17.57
2022-09-07T01:03:12.341Z,17.57
2022-09-07T01:04:47.020Z,17.57
2022-09-07T01:06:18.638Z,17.57
2022-09-07T01:07:50.447Z,17.61
2022-09-07T01:09:23.031Z,17.67
2022-09-07T01:10:56.198Z,17.68
2022-09-07T01:12:27.755Z,17.71
2022-09-07T01:13:59.382Z,17.71
2022-09-07T01:15:51.521Z,17.69
2022-09-07T01:17:29.092Z,17.69
2022-09-07T01:19:06.174Z,17.68
2022-09-07T01:20:45.964Z,17.69
2022-09-07T01:22:42.227Z,17.64
2022-09-07T01:24:16.972Z,17.53
2022-09-07T01:25:51.444Z,17.46
2022-09-07T01:27:27.568Z,17.40
2022-09-07T01:29:10.709Z,17.34
2022-09-07T01:30:42.986Z,17.30
2022-09-07T01:32:17.303Z,17.29
2022-09-07T01:33:52.025Z,17.29
2022-09-07T01:35:41.782Z,17.25
2022-09-07T01:37:30.859Z,17.18
2022-09-07T01:39:03.294Z,17.16
2022-09-07T01:40:44.980Z,17.13
2022-09-07T01:42:17.170Z,17.10
2022-09-07T01:44:05.899Z,17.08
2022-09-07T01:45:37.638Z,17.00
2022-09-07T01:47:12.255Z,16.95
2022-09-07T01:48:44.235Z,16.91
2022-09-07T01:50:17.911Z,16.89
2022-09-07T01:51:51.107Z,16.86
2022-09-07T01:53:23.090Z,16.79
2022-09-07T01:54:56.531Z,16.75
2022-09-07T01:56:32.149Z,16.70
2022-09-07T01:58:03.762Z,16.69
2022-09-07T01:59:39.487Z,16.70
2022-09-07T02:01:12.878Z,16.69
2022-09-07T02:02:49.118Z,16.68
2022-09-07T02:04:40.029Z,16.65
2022-09-07T02:06:13.897Z,16.62
2022-09-07T02:07:46.019Z,16.57
2022-09-07T02:09:17.991Z,16.58
2022-09-07T02:10:50.826Z,16.56
2022-09-07T02:12:24.685Z,16.55
2022-09-07T02:14:31.606Z,16.56
2022-09-07T02:16:06.172Z,16.54
2022-09-07T02:17:39.403Z,16.55
2022-09-07T02:19:12.847Z,16.56
2022-09-07T02:20:45.346Z,16.56
2022-09-07T02:22:17.349Z,16.52
2022-09-07T02:23:52.494Z,16.50
2022-09-07T02:25:24.789Z,16.50
2022-09-07T02:26:56.297Z,16.50
2022-09-07T02:28:31.088Z,16.47
2022-09-07T02:30:02.673Z,16.41
2022-09-07T02:31:34.387Z,16.33
2022-09-07T02:33:05.952Z,16.26
2022-09-07T02:34:37.715Z,16.27
2022-09-07T02:36:09.249Z,16.27
2022-09-07T02:37:41.581Z,16.26
2022-09-07T02:39:13.285Z,16.26
2022-09-07T02:40:49.920Z,16.25
2022-09-07T02:42:21.520Z,16.28
2022-09-07T02:43:53.126Z,16.30
2022-09-07T02:45:24.682Z,16.32
2022-09-07T02:47:01.349Z,16.34
2022-09-07T02:48:51.600Z,16.33
2022-09-07T02:50:29.897Z,16.30
2022-09-07T02:52:13.552Z,16.27
2022-09-07T02:53:51.735Z,16.24
2022-09-07T02:55:32.058Z,16.24
2022-09-07T02:57:03.571Z,16.25
2022-09-07T02:58:41.310Z,16.25
2022-09-07T03:00:13.670Z,16.22
2022-09-07T03:01:48.110Z,16.24
2022-09-07T03:03:23.902Z,16.24
2022-09-07T03:05:17.498Z,16.23
2022-09-07T03:06:53.136Z,16.22
2022-09-07T03:08:25.673Z,16.17
2022-09-07T03:09:57.620Z,16.16
2022-09-07T03:11:32.594Z,16.10
2022-09-07T03:13:08.064Z,16.04
2022-09-07T03:14:43.944Z,15.97
2022-09-07T03:16:19.940Z,15.89
2022-09-07T03:17:55.683Z,15.87
2022-09-07T03:19:31.170Z,15.85
2022-09-07T03:21:03.197Z,15.81
2022-09-07T03:22:35.245Z,15.81
2022-09-07T03:24:06.918Z,15.78
2022-09-07T03:25:38.794Z,15.75
2022-09-07T03:27:11.632Z,15.74
2022-09-07T03:28:43.309Z,15.74
2022-09-07T03:30:15.079Z,15.74
2022-09-07T03:31:46.731Z,15.77
2022-09-07T03:33:18.306Z,15.79
2022-09-07T03:34:50.467Z,15.81
2022-09-07T03:36:22.131Z,15.82
2022-09-07T03:37:53.765Z,15.82
2022-09-07T03:39:25.607Z,15.83
2022-09-07T03:40:58.352Z,15.86
2022-09-07T03:42:30.146Z,15.87
2022-09-07T03:44:08.033Z,15.84
2022-09-07T03:45:43.843Z,15.82
2022-09-07T03:47:19.789Z,15.83
2022-09-07T03:54:42.611Z,15.65
2022-09-07T03:56:18.326Z,15.63
2022-09-07T03:57:49.938Z,15.57
2022-09-07T03:59:21.620Z,15.54
2022-09-07T04:00:53.371Z,15.52
2022-09-07T04:02:24.998Z,15.51
2022-09-07T04:04:01.798Z,15.51
2022-09-07T04:05:33.843Z,15.52
2022-09-07T04:07:06.882Z,15.51
2022-09-07T04:08:38.908Z,15.49
2022-09-07T04:10:10.640Z,15.51
2022-09-07T04:11:42.455Z,15.51
2022-09-07T04:13:14.159Z,15.49
2022-09-07T04:14:46.527Z,15.45
2022-09-07T04:16:19.066Z,15.46
2022-09-07T04:17:50.658Z,15.42
2022-09-07T04:19:22.218Z,15.42
2022-09-07T04:20:54.102Z,15.41
2022-09-07T04:22:25.938Z,15.37
2022-09-07T04:23:57.658Z,15.35
2022-09-07T04:25:29.414Z,15.36
2022-09-07T04:27:02.231Z,15.42
2022-09-07T04:28:33.938Z,15.45
2022-09-07T04:30:05.797Z,15.48
2022-09-07T04:31:37.861Z,15.45
2022-09-07T04:33:10.198Z,15.41
2022-09-07T04:34:41.730Z,15.43
2022-09-07T04:36:13.577Z,15.44
2022-09-07T04:37:45.431Z,15.50
2022-09-07T04:39:17.136Z,15.54
2022-09-07T04:40:48.739Z,15.58
2022-09-07T04:42:20.480Z,15.64
2022-09-07T04:43:55.517Z,15.66
2022-09-07T04:45:27.088Z,15.70
2022-09-07T04:46:58.687Z,15.72
2022-09-07T04:48:30.496Z,15.70
2022-09-07T04:50:02.198Z,15.77
2022-09-07T04:51:33.975Z,15.84
2022-09-07T04:53:05.787Z,15.91
2022-09-07T04:54:37.598Z,15.97
2022-09-07T04:56:11.845Z,16.05
2022-09-07T04:57:45.419Z,16.14
2022-09-07T04:59:17.080Z,16.19
2022-09-07T05:00:48.671Z,16.29
2022-09-07T05:02:20.458Z,16.39
2022-09-07T05:03:52.189Z,16.46
2022-09-07T05:05:24.083Z,16.53
2022-09-07T05:06:55.674Z,16.62
2022-09-07T05:08:27.412Z,16.75
2022-09-07T05:09:59.280Z,16.85
2022-09-07T05:11:30.828Z,16.97
2022-09-07T05:13:03.113Z,17.09
2022-09-07T05:14:35.244Z,17.19
2022-09-07T05:16:07.716Z,17.30
2022-09-07T05:17:39.373Z,17.39
2022-09-07T05:19:11.515Z,17.48
2022-09-07T05:20:43.239Z,17.57
2022-09-07T05:22:14.853Z,17.66
2022-09-07T05:23:49.335Z,17.71
2022-09-07T05:25:20.860Z,17.76
2022-09-07T05:26:52.791Z,17.84
2022-09-07T05:28:24.462Z,17.96
2022-09-07T05:30:04.455Z,18.07
2022-09-07T05:31:36.798Z,18.16
2022-09-07T05:33:08.495Z,18.16
2022-09-07T05:34:40.048Z,18.12
2022-09-07T05:36:11.855Z,18.04
2022-09-07T05:37:43.384Z,18.07
2022-09-07T05:39:15.035Z,18.21
2022-09-07T05:40:47.479Z,18.35
2022-09-07T05:42:19.041Z,18.47
2022-09-07T05:45:43.065Z,18.74
2022-09-07T05:47:14.925Z,18.82
2022-09-07T05:48:46.785Z,18.88
2022-09-07T05:50:18.422Z,19.03
2022-09-07T05:51:50.013Z,19.14
2022-09-07T05:53:21.700Z,19.27
2022-09-07T05:54:59.287Z,19.25
2022-09-07T05:56:39.320Z,19.18
2022-09-07T05:58:10.980Z,19.18
2022-09-07T05:59:42.616Z,19.08
2022-09-07T06:01:14.332Z,19.05
2022-09-07T06:02:46.045Z,19.10
2022-09-07T06:04:18.068Z,19.18
2022-09-07T06:05:50.296Z,19.34
2022-09-07T06:07:23.001Z,19.50
2022-09-07T06:08:55.320Z,19.59
2022-09-07T06:12:13.975Z,19.83
2022-09-07T06:13:45.632Z,19.93
2022-09-07T06:15:17.983Z,20.08
2022-09-07T06:16:49.711Z,20.15
2022-09-07T06:18:21.385Z,20.24
2022-09-07T06:19:53.005Z,20.38
2022-09-07T06:21:24.856Z,20.41
2022-09-07T06:22:57.238Z,20.25
2022-09-07T06:24:29.537Z,20.16
2022-09-07T06:26:01.107Z,20.29
2022-09-07T06:27:32.876Z,20.35
2022-09-07T06:29:04.638Z,20.42
2022-09-07T06:30:36.195Z,20.55
2022-09-07T06:33:59.668Z,20.81
2022-09-07T06:35:31.445Z,20.92
2022-09-07T06:37:03.522Z,20.93
2022-09-07T06:38:36.992Z,20.75
2022-09-07T06:40:08.874Z,20.70
2022-09-07T06:43:32.715Z,20.67
2022-09-07T06:45:04.657Z,20.87
2022-09-07T06:48:28.762Z,21.36
2022-09-07T06:50:00.718Z,21.26
2022-09-07T06:51:32.419Z,21.10
2022-09-07T06:56:32.755Z,20.86
2022-09-07T06:58:04.478Z,20.83
2022-09-07T06:59:36.353Z,20.88
2022-09-07T07:01:17.970Z,20.98
2022-09-07T07:02:49.709Z,21.05
2022-09-07T07:04:21.397Z,21.13
2022-09-07T07:05:53.865Z,21.33
2022-09-07T07:07:25.462Z,21.53
2022-09-07T07:08:57.226Z,21.68
2022-09-07T07:10:28.824Z,21.92
2022-09-07T07:12:00.573Z,22.12
2022-09-07T07:13:32.776Z,22.16
2022-09-07T07:15:05.003Z,22.27
2022-09-07T07:16:36.824Z,22.38
2022-09-07T07:18:20.210Z,22.50
2022-09-07T07:19:52.793Z,22.51
2022-09-07T07:21:24.479Z,22.41
2022-09-07T07:22:56.185Z,22.32
2022-09-07T07:24:27.888Z,22.41
2022-09-07T07:26:03.105Z,22.62
2022-09-07T07:27:37.685Z,22.85
2022-09-07T07:29:14.739Z,22.97
2022-09-07T07:30:59.596Z,23.11
2022-09-07T07:37:37.268Z,23.61
2022-09-07T07:42:52.729Z,23.62
2022-09-07T07:44:24.481Z,23.73
2022-09-07T07:45:59.157Z,23.85
2022-09-07T07:47:32.759Z,24.03
2022-09-07T07:49:04.444Z,24.16
2022-09-07T07:50:36.365Z,24.30
2022-09-07T07:54:00.207Z,24.17
2022-09-07T07:55:47.862Z,24.15
2022-09-07T07:57:20.096Z,24.26
2022-09-07T07:58:52.710Z,24.45
2022-09-07T08:00:43.707Z,24.67
2022-09-07T08:02:16.440Z,24.89
2022-09-07T08:03:48.772Z,25.01
2022-09-07T08:05:23.188Z,25.14
2022-09-07T08:06:58.705Z,25.20
2022-09-07T08:13:29.615Z,25.30
2022-09-07T08:15:03.271Z,25.33
2022-09-07T08:16:35.275Z,25.34
2022-09-07T08:18:06.869Z,25.21
2022-09-07T08:19:38.626Z,25.14
2022-09-07T08:21:10.675Z,25.29
2022-09-07T08:22:42.344Z,25.46
2022-09-07T08:24:13.983Z,25.62
2022-09-07T08:25:52.230Z,25.76
2022-09-07T08:27:23.927Z,25.89
2022-09-07T08:28:55.635Z,25.96
2022-09-07T08:30:27.275Z,26.08
2022-09-07T08:31:59.114Z,26.11
2022-09-07T08:33:30.812Z,26.16
2022-09-07T08:35:03.344Z,26.11
2022-09-07T08:36:34.997Z,25.81
2022-09-07T08:38:06.875Z,25.90
2022-09-07T08:39:39.008Z,26.03
2022-09-07T08:41:20.016Z,26.14
2022-09-07T08:43:00.286Z,26.07
2022-09-07T08:44:37.169Z,26.20
2022-09-07T08:51:36.911Z,26.00
2022-09-07T08:53:12.077Z,26.23
2022-09-07T08:54:44.542Z,26.38
2022-09-07T08:56:21.451Z,26.49
2022-09-07T08:57:57.293Z,26.65
2022-09-07T08:59:47.656Z,26.79
2022-09-07T09:01:35.982Z,26.90
2022-09-07T09:03:30.145Z,27.04
2022-09-07T09:05:18.710Z,27.12
2022-09-07T09:07:09.130Z,27.09
2022-09-07T09:08:40.803Z,26.90
2022-09-07T09:10:15.901Z,26.94
2022-09-07T09:11:50.545Z,27.08
2022-09-07T09:13:40.861Z,27.02
2022-09-07T09:15:16.092Z,26.89
2022-09-07T09:16:49.289Z,26.96
2022-09-07T09:18:21.038Z,27.17
2022-09-07T09:20:11.617Z,27.24
2022-09-07T09:21:43.249Z,27.40
2022-09-07T09:23:15.989Z,27.52
2022-09-07T09:24:48.621Z,27.45
2022-09-07T09:26:23.126Z,27.54
2022-09-07T09:27:54.898Z,27.71
2022-09-07T09:29:26.887Z,27.84
2022-09-07T09:30:58.758Z,27.90
2022-09-07T09:32:41.590Z,27.95
2022-09-07T09:34:14.251Z,28.00
2022-09-07T09:35:46.662Z,28.06
2022-09-07T09:37:18.754Z,28.08
2022-09-07T09:38:51.031Z,28.05
2022-09-07T09:40:30.501Z,28.11
2022-09-07T09:42:17.943Z,28.19
2022-09-07T09:43:52.862Z,28.15
2022-09-07T09:45:24.348Z,28.04
2022-09-07T09:48:52.899Z,27.92
2022-09-07T09:52:38.501Z,28.05
2022-09-07T09:54:29.643Z,28.17
2022-09-07T09:56:02.021Z,28.38
2022-09-07T09:59:04.733Z,28.46
2022-09-07T10:05:27.155Z,28.89
2022-09-07T10:07:08.454Z,29.02
2022-09-07T10:08:40.252Z,29.11
2022-09-07T10:10:14.834Z,29.07
2022-09-07T10:13:44.061Z,29.23
2022-09-07T10:15:25.766Z,29.37
2022-09-07T10:16:58.096Z,29.34
2022-09-07T10:18:29.705Z,29.31
2022-09-07T10:20:01.958Z,29.39
2022-09-07T10:21:33.653Z,29.39
2022-09-07T10:23:05.901Z,29.35
2022-09-07T10:24:38.598Z,29.22
2022-09-07T10:26:27.558Z,29.24
2022-09-07T10:28:14.286Z,29.30
2022-09-07T10:29:45.849Z,29.43
2022-09-07T10:31:17.496Z,29.52
2022-09-07T10:32:59.976Z,29.52
2022-09-07T10:34:35.040Z,29.59
2022-09-07T10:36:11.757Z,29.65
2022-09-07T10:38:01.987Z,29.74
2022-09-07T10:39:40.363Z,29.87
2022-09-07T10:41:12.260Z,29.98
2022-09-07T10:43:22.609Z,30.01
2022-09-07T10:45:12.652Z,30.06
2022-09-07T10:46:59.907Z,29.86
2022-09-07T10:48:35.397Z,29.79
2022-09-07T10:50:22.186Z,29.83
2022-09-07T10:52:02.620Z,29.87
2022-09-07T10:53:41.510Z,29.76
2022-09-07T10:55:16.574Z,29.76
2022-09-07T10:56:59.351Z,29.86
2022-09-07T11:00:26.744Z,29.99
2022-09-07T11:02:02.445Z,30.18
2022-09-07T11:03:34.026Z,30.38
2022-09-07T11:05:08.586Z,30.62
2022-09-07T11:06:41.594Z,30.86
2022-09-07T11:08:13.179Z,31.05
2022-09-07T11:09:51.572Z,31.19
2022-09-07T11:12:00.693Z,31.30
2022-09-07T11:13:16.663Z,31.34
2022-09-07T11:14:50.527Z,31.32
2022-09-07T11:18:16.808Z,31.34
2022-09-07T11:20:09.289Z,31.44
2022-09-07T11:21:57.977Z,31.35
2022-09-07T11:23:29.696Z,31.31
2022-09-07T11:27:01.049Z,31.10
2022-09-07T11:28:44.371Z,31.24
2022-09-07T11:30:16.655Z,31.28
2022-09-07T11:31:49.515Z,31.29
2022-09-07T11:33:22.192Z,31.31
2022-09-07T11:34:54.655Z,31.38
2022-09-07T11:36:26.903Z,31.43
2022-09-07T11:38:00.167Z,31.40
2022-09-07T11:39:41.380Z,31.28
2022-09-07T11:41:13.473Z,31.17
2022-09-07T11:42:48.359Z,31.06
2022-09-07T11:44:20.033Z,31.00
2022-09-07T11:45:53.869Z,31.04
2022-09-07T11:47:35.719Z,31.01
2022-09-07T11:49:27.793Z,30.96
2022-09-07T11:51:00.399Z,30.90
2022-09-07T11:52:36.279Z,30.85
2022-09-07T11:54:17.984Z,31.02
2022-09-07T11:56:00.117Z,31.23
2022-09-07T11:57:34.508Z,31.34
2022-09-07T11:59:25.027Z,31.42
2022-09-07T12:01:15.716Z,31.55
2022-09-07T12:02:59.366Z,31.60
2022-09-07T12:04:35.303Z,31.63
2022-09-07T12:06:25.758Z,31.78
2022-09-07T12:08:09.290Z,31.90
2022-09-07T12:09:47.348Z,31.75
2022-09-07T12:11:23.055Z,31.73
2022-09-07T12:12:58.003Z,31.87
2022-09-07T12:14:41.963Z,31.90
2022-09-07T12:16:28.771Z,31.98
2022-09-07T12:18:18.643Z,32.07
2022-09-07T12:20:08.988Z,32.11
2022-09-07T12:21:40.629Z,32.16
2022-09-07T12:23:14.999Z,32.19
2022-09-07T12:24:50.463Z,32.19
2022-09-07T12:26:34.366Z,32.30
2022-09-07T12:28:06.043Z,32.43
2022-09-07T12:29:37.613Z,32.57
2022-09-07T12:31:12.076Z,32.68
2022-09-07T12:32:54.214Z,32.77
2022-09-07T12:34:29.762Z,32.89
2022-09-07T12:36:02.406Z,32.99
2022-09-07T12:37:34.270Z,33.09
2022-09-07T12:39:18.923Z,33.16
2022-09-07T12:41:00.062Z,33.19
2022-09-07T12:42:32.862Z,33.08
2022-09-07T12:44:05.824Z,33.03
2022-09-07T12:45:37.470Z,32.76
2022-09-07T12:47:12.579Z,32.47
2022-09-07T12:48:44.727Z,32.14
2022-09-07T12:50:21.945Z,31.79
2022-09-07T12:52:13.907Z,31.62
2022-09-07T12:53:53.088Z,31.56
2022-09-07T12:57:53.564Z,31.82
2022-09-07T12:59:34.359Z,32.01
2022-09-07T13:01:12.316Z,32.10
2022-09-07T13:02:54.081Z,32.09
2022-09-07T13:04:31.641Z,32.00
2022-09-07T13:06:09.646Z,32.06
2022-09-07T13:08:09.015Z,32.16
2022-09-07T13:09:41.317Z,32.11
2022-09-07T13:11:22.227Z,32.04
2022-09-07T13:12:57.122Z,32.01
2022-09-07T13:14:30.491Z,31.95
2022-09-07T13:16:11.751Z,31.94
2022-09-07T13:17:44.178Z,31.94
2022-09-07T13:19:34.790Z,31.97
2022-09-07T13:21:09.387Z,32.01
2022-09-07T13:22:41.253Z,32.03
2022-09-07T13:26:35.807Z,32.14
2022-09-07T13:28:20.795Z,32.13
2022-09-07T13:29:55.220Z,32.17
2022-09-07T13:31:47.093Z,32.24
2022-09-07T13:33:25.038Z,32.23
2022-09-07T13:35:05.775Z,32.31
2022-09-07T13:36:38.171Z,32.41
2022-09-07T13:38:11.037Z,32.52
2022-09-07T13:39:44.869Z,32.61
2022-09-07T13:41:17.813Z,32.63
2022-09-07T13:42:49.486Z,32.51
2022-09-07T13:44:26.439Z,32.57
2022-09-07T13:46:02.564Z,32.54
2022-09-07T13:47:40.080Z,32.61
2022-09-07T13:49:18.170Z,32.62
2022-09-07T13:50:55.640Z,32.68
2022-09-07T13:52:48.145Z,32.58
2022-09-07T13:54:19.783Z,32.64
2022-09-07T13:55:51.559Z,32.70
2022-09-07T13:57:52.963Z,32.74
2022-09-07T13:59:28.437Z,32.46
2022-09-07T14:01:01.313Z,32.27
2022-09-07T14:02:33.731Z,32.01
2022-09-07T14:04:09.658Z,31.88
2022-09-07T14:05:41.221Z,31.70
2022-09-07T14:07:12.778Z,31.51
2022-09-07T14:09:00.652Z,31.46
2022-09-07T14:10:32.366Z,31.34
2022-09-07T14:12:04.454Z,31.27
2022-09-07T14:13:36.230Z,31.21
2022-09-07T14:15:17.582Z,31.16
2022-09-07T14:16:49.315Z,31.17
2022-09-07T14:18:30.600Z,31.16
2022-09-07T14:20:02.459Z,31.10
2022-09-07T14:21:34.061Z,31.03
2022-09-07T14:23:11.313Z,30.95
2022-09-07T14:24:56.240Z,30.86
2022-09-07T14:26:33.019Z,30.74
2022-09-07T14:28:04.679Z,30.79
2022-09-07T14:29:36.571Z,30.78
2022-09-07T14:31:10.461Z,30.68
2022-09-07T14:32:42.372Z,30.64
2022-09-07T14:34:14.135Z,30.78
2022-09-07T14:35:45.805Z,30.88
2022-09-07T14:37:17.776Z,30.91
2022-09-07T14:39:05.003Z,30.89
2022-09-07T14:40:37.074Z,30.94
2022-09-07T14:42:11.187Z,30.78
2022-09-07T14:43:53.993Z,30.75
2022-09-07T14:45:28.512Z,30.54
2022-09-07T14:47:04.721Z,30.43
2022-09-07T14:48:39.922Z,30.35
2022-09-07T14:50:17.142Z,30.17
2022-09-07T14:51:48.737Z,30.04
2022-09-07T14:53:36.322Z,29.88
2022-09-07T14:55:09.292Z,29.82
2022-09-07T14:56:41.184Z,29.82
2022-09-07T14:58:14.375Z,29.81
2022-09-07T14:59:46.783Z,29.73
2022-09-07T15:03:37.787Z,29.76
2022-09-07T15:05:15.068Z,29.80
2022-09-07T15:07:02.621Z,29.79
2022-09-07T15:08:44.220Z,29.75
2022-09-07T15:10:23.239Z,29.69
2022-09-07T15:12:06.736Z,29.57
2022-09-07T15:13:45.888Z,29.39
2022-09-07T15:15:27.193Z,29.29
2022-09-07T15:22:08.818Z,29.23
2022-09-07T15:23:40.538Z,29.07
2022-09-07T15:25:12.342Z,29.04
2022-09-07T15:27:03.633Z,29.03
2022-09-07T15:30:27.716Z,28.99
2022-09-07T15:32:04.446Z,28.98
2022-09-07T15:33:36.246Z,28.94
2022-09-07T15:35:08.391Z,28.90
2022-09-07T15:36:42.291Z,28.86
2022-09-07T15:40:17.928Z,28.80
2022-09-07T15:41:51.452Z,28.82
2022-09-07T15:43:23.365Z,28.82
2022-09-07T15:44:55.681Z,28.71
2022-09-07T15:46:27.357Z,28.69
2022-09-07T15:47:59.082Z,28.68
2022-09-07T15:49:30.722Z,28.44
2022-09-07T15:52:04.765Z,28.40
2022-09-07T15:53:02.840Z,28.27
2022-09-07T15:54:39.851Z,28.27
2022-09-07T16:07:01.728Z,27.40
2022-09-07T16:08:33.992Z,27.21
2022-09-07T16:10:06.222Z,27.01
2022-09-07T16:11:37.776Z,26.89
2022-09-07T16:13:11.957Z,26.84
2022-09-07T16:14:47.939Z,26.72
2022-09-07T16:16:19.962Z,26.62
2022-09-07T16:17:53.852Z,26.49
2022-09-07T16:19:25.726Z,26.45
2022-09-07T16:20:58.028Z,26.39
2022-09-07T16:24:21.301Z,26.20
2022-09-07T16:25:57.211Z,26.09
2022-09-07T16:27:32.269Z,25.92
2022-09-07T16:29:05.152Z,25.78
2022-09-07T16:30:39.394Z,25.72
2022-09-07T16:34:02.808Z,25.44
2022-09-07T16:35:34.755Z,25.30
2022-09-07T16:37:06.952Z,25.23
2022-09-07T16:38:47.461Z,25.12
2022-09-07T16:40:19.250Z,25.00
2022-09-07T16:41:51.275Z,24.88
2022-09-07T16:43:23.247Z,24.79
2022-09-07T16:46:02.209Z,24.70
2022-09-07T16:46:46.865Z,24.55
2022-09-07T16:48:18.548Z,24.45
2022-09-07T16:49:50.652Z,24.32
2022-09-07T16:51:24.167Z,24.26
2022-09-07T16:52:56.270Z,24.17
2022-09-07T16:54:29.365Z,24.07
2022-09-07T16:56:13.449Z,24.01
2022-09-07T16:59:37.039Z,23.71
2022-09-07T17:01:09.579Z,23.64
2022-09-07T17:02:41.421Z,23.59
2022-09-07T17:04:13.221Z,23.52
2022-09-07T17:05:45.160Z,23.46
2022-09-07T17:07:16.922Z,23.41
2022-09-07T17:08:48.580Z,23.39
2022-09-07T17:10:20.613Z,23.32
2022-09-07T17:11:52.513Z,23.26
2022-09-07T17:13:25.132Z,23.26
2022-09-07T17:14:57.110Z,23.22
2022-09-07T17:16:32.666Z,23.15
2022-09-07T17:18:04.434Z,23.12
2022-09-07T17:19:36.418Z,23.09
2022-09-07T17:21:08.069Z,23.04
2022-09-07T17:22:39.716Z,23.01
2022-09-07T17:24:11.808Z,22.97
2022-09-07T17:25:43.419Z,22.98
2022-09-07T17:27:15.042Z,22.98
2022-09-07T17:28:48.824Z,22.95
2022-09-07T17:30:21.645Z,22.88
2022-09-07T17:33:44.867Z,22.76
2022-09-07T17:35:16.587Z,22.72
2022-09-07T17:36:48.412Z,22.67
2022-09-07T17:40:12.149Z,22.63
2022-09-07T17:41:43.850Z,22.63
2022-09-07T17:45:07.876Z,22.55
2022-09-07T17:46:39.526Z,22.47
2022-09-07T17:48:11.109Z,22.44
2022-09-07T17:49:43.178Z,22.44
2022-09-07T17:51:15.378Z,22.40
2022-09-07T17:52:52.968Z,22.38
2022-09-07T17:54:26.015Z,22.35
2022-09-07T17:55:57.736Z,22.35
2022-09-07T17:57:30.007Z,22.34
2022-09-07T18:00:54.726Z,22.32
2022-09-07T18:02:26.298Z,22.30
2022-09-07T18:03:58.118Z,22.26
2022-09-07T18:05:29.847Z,22.25
2022-09-07T18:07:01.644Z,22.22
2022-09-07T18:08:33.720Z,22.17
2022-09-07T18:10:05.702Z,22.17
2022-09-07T18:11:52.661Z,22.12
2022-09-07T18:13:34.996Z,22.09
2022-09-07T18:15:07.935Z,22.08
2022-09-07T18:16:40.308Z,22.09
2022-09-07T18:18:13.168Z,22.05
2022-09-07T18:19:45.422Z,22.01
2022-09-07T18:21:21.782Z,22.02
2022-09-07T18:22:53.698Z,22.05
2022-09-07T18:24:25.395Z,22.05
2022-09-07T18:25:57.645Z,22.06
2022-09-07T18:27:31.269Z,22.04
2022-09-07T18:29:03.640Z,22.04
2022-09-07T18:30:39.540Z,22.03
2022-09-07T18:32:11.489Z,22.03
2022-09-07T18:33:43.290Z,22.02
2022-09-07T18:35:14.992Z,21.99
2022-09-07T18:36:46.766Z,21.99
2022-09-07T18:38:18.489Z,21.97
2022-09-07T18:39:50.722Z,21.98
2022-09-07T18:41:22.311Z,21.97
2022-09-07T18:42:54.123Z,21.93
2022-09-07T18:46:19.167Z,21.95
2022-09-07T18:47:51.128Z,21.92
2022-09-07T18:49:23.547Z,21.89
2022-09-07T18:50:56.398Z,21.89
2022-09-07T18:54:19.625Z,21.85
2022-09-07T18:55:51.305Z,21.85
2022-09-07T18:57:23.034Z,21.85
2022-09-07T18:58:55.124Z,21.85
2022-09-07T19:00:27.715Z,21.82
2022-09-07T19:02:03.907Z,21.78
2022-09-07T19:03:37.298Z,21.74
2022-09-07T19:07:01.178Z,21.77
2022-09-07T19:08:34.017Z,21.79
2022-09-07T19:10:08.212Z,21.80
2022-09-07T19:11:42.948Z,21.79
2022-09-07T19:13:14.689Z,21.76
2022-09-07T19:14:46.535Z,21.73
2022-09-07T19:16:19.357Z,21.69
2022-09-07T19:17:51.060Z,21.69
2022-09-07T19:19:24.366Z,21.66
2022-09-07T19:20:56.422Z,21.59
2022-09-07T19:22:28.633Z,21.49
2022-09-07T19:24:02.110Z,21.39
2022-09-07T19:25:33.977Z,21.33
2022-09-07T19:27:07.425Z,21.29
2022-09-07T19:28:39.017Z,21.25
2022-09-07T19:30:11.129Z,21.20
2022-09-07T19:31:44.500Z,21.19
2022-09-07T19:33:16.109Z,21.21
2022-09-07T19:34:52.066Z,21.26
2022-09-07T19:36:24.257Z,21.28
2022-09-07T19:37:56.307Z,21.26
2022-09-07T19:39:28.290Z,21.22
2022-09-07T19:41:00.086Z,21.21
2022-09-07T19:42:31.611Z,21.22
2022-09-07T19:44:03.256Z,21.22
2022-09-07T19:45:37.221Z,21.20
2022-09-07T19:47:08.978Z,21.20
2022-09-07T19:48:40.831Z,21.19
2022-09-07T19:50:12.404Z,21.21
2022-09-07T19:51:44.438Z,21.21
2022-09-07T19:53:16.144Z,21.23
2022-09-07T19:54:48.292Z,21.24
2022-09-07T19:56:21.996Z,21.21
2022-09-07T19:57:53.855Z,21.20
2022-09-07T19:59:25.729Z,21.18
2022-09-07T20:00:57.278Z,21.19
2022-09-07T20:02:29.293Z,21.20
2022-09-07T20:04:03.309Z,21.21
2022-09-07T20:05:37.191Z,21.23
2022-09-07T20:07:08.805Z,21.24
2022-09-07T20:08:40.663Z,21.24
2022-09-07T20:10:12.265Z,21.27
2022-09-07T20:11:46.552Z,21.30
2022-09-07T20:13:18.866Z,21.35
2022-09-07T20:14:50.921Z,21.37
2022-09-07T20:16:22.580Z,21.39
2022-09-07T20:17:54.144Z,21.35
2022-09-07T20:19:27.276Z,21.33
2022-09-07T20:21:00.146Z,21.34
2022-09-07T20:22:31.852Z,21.33
2022-09-07T20:24:03.916Z,21.32
2022-09-07T20:25:35.457Z,21.30
2022-09-07T20:27:06.956Z,21.29
2022-09-07T20:28:38.685Z,21.26
2022-09-07T20:30:10.640Z,21.29
2022-09-07T20:31:43.380Z,21.28
2022-09-07T20:33:14.984Z,21.26
2022-09-07T20:34:46.801Z,21.20
2022-09-07T20:36:19.228Z,21.16
2022-09-07T20:37:50.862Z,21.13
2022-09-07T20:39:22.793Z,21.11
2022-09-07T20:40:54.799Z,21.04
2022-09-07T20:42:26.313Z,20.99
2022-09-07T20:44:01.363Z,20.95
2022-09-07T20:45:34.752Z,20.92
2022-09-07T20:47:06.364Z,20.90
2022-09-07T20:48:38.059Z,20.91
2022-09-07T20:50:09.938Z,20.92
2022-09-07T20:51:41.536Z,20.93
2022-09-07T20:53:13.499Z,20.95
2022-09-07T20:54:45.081Z,20.93
2022-09-07T20:56:20.588Z,20.92
2022-09-07T20:57:52.269Z,20.94
2022-09-07T20:59:25.553Z,20.95
2022-09-07T21:00:57.596Z,20.99
2022-09-07T21:02:29.370Z,21.02
2022-09-07T21:04:01.140Z,21.03
2022-09-07T21:05:35.303Z,21.05
2022-09-07T21:07:07.124Z,21.08
2022-09-07T21:08:39.483Z,21.12
2022-09-07T21:10:11.072Z,21.16
2022-09-07T21:11:45.075Z,21.17
2022-09-07T21:13:20.151Z,21.16
2022-09-07T21:14:51.964Z,21.13
2022-09-07T21:16:24.445Z,21.11
2022-09-07T21:17:56.545Z,21.03
2022-09-07T21:19:28.043Z,20.96
2022-09-07T21:21:19.170Z,20.89
2022-09-07T21:22:52.085Z,20.82
2022-09-07T21:24:24.025Z,20.80
2022-09-07T21:25:56.105Z,20.72
2022-09-07T21:27:28.218Z,20.66
2022-09-07T21:29:00.668Z,20.61
2022-09-07T21:30:32.297Z,20.56
2022-09-07T21:32:03.876Z,20.52
2022-09-07T21:33:35.698Z,20.45
2022-09-07T21:35:07.518Z,20.41
2022-09-07T21:36:39.116Z,20.38
2022-09-07T21:38:10.675Z,20.37
2022-09-07T21:39:42.352Z,20.37
2022-09-07T21:41:14.555Z,20.39
2022-09-07T21:42:46.080Z,20.41
2022-09-07T21:44:17.635Z,20.41
2022-09-07T21:45:49.843Z,20.37
2022-09-07T21:47:21.346Z,20.33
2022-09-07T21:48:52.897Z,20.31
2022-09-07T21:50:24.423Z,20.30
2022-09-07T21:51:55.969Z,20.26
2022-09-07T21:53:27.588Z,20.22
2022-09-07T21:54:59.638Z,20.22
2022-09-07T21:56:31.439Z,20.19
2022-09-07T21:58:03.056Z,20.17
2022-09-07T21:59:34.722Z,20.13
2022-09-07T22:01:11.861Z,20.12
2022-09-07T22:02:43.703Z,20.12